Terminal Aerodrome Forecast
Issued by NWS Sterling, VA

Home | Current Version | Previous Version | Text Only | Print | Product List | Glossary On
Versions: 1 2 3 4 5 6 7 8 9 10 11 12 13 14 15
000
FTUS41 KLWX 280500
TAFMRB
TAF
KMRB 280540Z 2806/2906 VRB03KT P6SM BKN060
     FM281100 00000KT P6SM -SHRA OVC040
     FM281600 00000KT 5SM -SHRA OVC025
     FM281800 32004KT 3SM -RA OVC020
     FM290000 34005KT P6SM -RA OVC025=

USA.gov is the U.S. government's official web portal to all federal, state and local government web resources and services.